Time;durP1;ratioP1;P1;durP2;ratioP2;P2;SDS_P1;SDS_P2;PMS_P1;PMS_P2;Temp;Humidity;BMP_temperature;BMP_pressure;BME280_temperature;BME280_humidity;BME280_pressure;Samples;Min_cycle;Max_cycle;Signal;HPM_P1;HPM_P2
2023/07/02 15:53:20;;;;;;;7.30;3.63;;;24.10;49.00;;;;;;5110130;27;20333;-76
2023/07/02 15:55:47;;;;;;;5.28;2.70;;;24.40;49.20;;;;;;5109421;28;20027;-77
2023/07/02 15:58:13;;;;;;;6.47;2.85;;;24.60;48.80;;;;;;5110228;28;20020;-76
2023/07/02 16:00:39;;;;;;;6.45;2.75;;;24.90;47.60;;;;;;5111154;28;20035;-75
2023/07/02 16:03:05;;;;;;;11.23;3.63;;;25.10;47.70;;;;;;5109391;28;20047;-77
2023/07/02 16:05:37;;;;;;;7.93;3.22;;;24.80;47.20;;;;;;5110048;28;20457;-76
2023/07/02 16:08:03;;;;;;;7.75;3.40;;;24.60;47.20;;;;;;5108852;28;20066;-76
2023/07/02 16:10:29;;;;;;;8.52;3.47;;;24.50;47.00;;;;;;5109395;28;20016;-75
2023/07/02 16:12:54;;;;;;;7.40;3.40;;;24.20;48.20;;;;;;5110032;28;20460;-78
2023/07/02 16:15:20;;;;;;;7.82;2.95;;;24.20;48.60;;;;;;5111142;28;20369;-77
2023/07/02 16:17:49;;;;;;;7.00;2.75;;;24.80;47.90;;;;;;5109770;28;20031;-66
2023/07/02 16:20:14;;;;;;;8.85;3.63;;;25.10;47.40;;;;;;5110563;28;20038;-75
2023/07/02 16:22:40;;;;;;;6.93;3.10;;;25.60;47.80;;;;;;5110174;28;20483;-68
2023/07/02 16:25:06;;;;;;;10.13;3.42;;;26.50;46.00;;;;;;5109305;28;20034;-72
2023/07/02 16:27:34;;;;;;;9.02;3.35;;;26.80;45.30;;;;;;5112798;27;20056;-77
2023/07/02 16:30:00;;;;;;;6.90;3.20;;;26.10;45.40;;;;;;5121135;27;20023;-77
2023/07/02 16:32:28;;;;;;;8.05;2.97;;;25.10;46.60;;;;;;5109335;28;20365;-75
2023/07/02 16:34:54;;;;;;;10.38;3.40;;;24.50;48.00;;;;;;5109825;28;20024;-74
2023/07/02 16:37:20;;;;;;;7.65;3.05;;;24.80;47.90;;;;;;5109142;28;20026;-76
2023/07/02 16:39:46;;;;;;;7.88;3.15;;;25.30;47.80;;;;;;5109761;28;20020;-73
2023/07/02 16:42:12;;;;;;;10.55;3.70;;;25.40;47.10;;;;;;5122689;27;20039;-76
2023/07/02 16:44:38;;;;;;;9.63;3.65;;;25.60;46.80;;;;;;5129913;27;20012;-75
2023/07/02 16:47:04;;;;;;;9.15;3.50;;;25.10;47.50;;;;;;5127793;28;20027;-74
2023/07/02 16:49:30;;;;;;;8.25;3.42;;;24.40;48.50;;;;;;5130539;28;20084;-78
2023/07/02 16:51:57;;;;;;;8.25;4.00;;;23.90;49.80;;;;;;5108855;28;20677;-76
2023/07/02 16:54:24;;;;;;;8.57;3.42;;;23.60;50.70;;;;;;5109721;28;20057;-76
2023/07/02 16:56:56;;;;;;;11.45;3.63;;;23.50;51.30;;;;;;5109122;28;20016;-70
2023/07/02 16:59:24;;;;;;;6.70;3.50;;;23.60;51.60;;;;;;5111586;28;20138;-66
2023/07/02 17:01:55;;;;;;;8.63;3.42;;;23.60;51.80;;;;;;5106130;27;20027;-66
2023/07/02 17:04:21;;;;;;;;;;;23.60;51.80;;;;;;5089608;28;20051;-74
2023/07/02 17:06:51;;;;;;;8.23;3.20;;;23.60;51.90;;;;;;5079094;28;19936;-72
2023/07/02 17:09:32;;;;;;;7.55;2.90;;;23.80;52.00;;;;;;5086207;28;20016;-70
2023/07/02 17:11:59;;;;;;;9.70;3.45;;;24.20;51.70;;;;;;5079885;28;20410;-69
2023/07/02 17:14:27;;;;;;;9.40;3.58;;;24.30;51.50;;;;;;5088845;28;20405;-72
2023/07/02 17:16:56;;;;;;;7.95;3.83;;;24.10;51.30;;;;;;5085417;28;20043;-74
2023/07/02 17:19:39;;;;;;;9.32;3.60;;;23.70;51.90;;;;;;5085876;28;20509;-67
2023/07/02 17:22:08;;;;;;;10.07;3.75;;;23.50;52.80;;;;;;5079655;28;20024;-78
2023/07/02 17:24:36;;;;;;;9.88;3.72;;;23.40;52.60;;;;;;5084546;28;20060;-68
2023/07/02 17:27:02;;;;;;;8.20;3.70;;;23.30;52.90;;;;;;5086474;28;20460;-75
2023/07/02 17:29:31;;;;;;;7.15;3.28;;;23.20;53.50;;;;;;5087980;28;20069;-74
2023/07/02 17:31:59;;;;;;;8.88;3.65;;;23.20;54.00;;;;;;5092097;28;20070;-78
2023/07/02 17:34:27;;;;;;;8.18;3.38;;;23.10;54.00;;;;;;5078258;28;20078;-78
2023/07/02 17:36:57;;;;;;;10.32;3.90;;;22.90;54.40;;;;;;5088266;28;20452;-76
2023/07/02 17:39:23;;;;;;;8.48;3.03;;;22.70;54.90;;;;;;5083368;28;20027;-77
2023/07/02 17:41:52;;;;;;;10.90;3.83;;;22.60;55.50;;;;;;5077718;28;20082;-78
2023/07/02 17:44:24;;;;;;;8.95;3.75;;;22.50;55.30;;;;;;5099907;28;20023;-70
2023/07/02 17:46:52;;;;;;;9.88;3.35;;;22.40;55.50;;;;;;5105584;28;20054;-69
2023/07/02 17:49:19;;;;;;;7.70;3.38;;;23.00;55.00;;;;;;5097796;28;20032;-74
2023/07/02 17:51:45;;;;;;;6.60;3.28;;;23.50;54.20;;;;;;5097024;28;20040;-76
2023/07/02 17:54:11;;;;;;;8.85;3.65;;;23.50;54.10;;;;;;5094967;28;20047;-73
2023/07/02 17:56:36;;;;;;;9.70;4.05;;;23.50;54.10;;;;;;5095087;28;20150;-75
2023/07/02 17:59:03;;;;;;;10.43;3.50;;;23.50;54.00;;;;;;5102104;28;20072;-80
2023/07/02 18:01:28;;;;;;;8.02;3.90;;;23.20;53.90;;;;;;5094815;28;20166;-80
2023/07/02 18:03:54;;;;;;;9.60;3.47;;;22.90;54.80;;;;;;5095631;28;20553;-77
2023/07/02 18:06:22;;;;;;;8.35;4.22;;;22.60;55.80;;;;;;5095534;28;20020;-72
2023/07/02 18:08:48;;;;;;;12.35;4.07;;;22.60;56.30;;;;;;5094097;28;20043;-70
2023/07/02 18:11:13;;;;;;;9.43;3.95;;;22.40;56.50;;;;;;5096265;28;20035;-65
2023/07/02 18:13:39;;;;;;;9.15;3.83;;;22.20;57.00;;;;;;5087554;28;20399;-69
2023/07/02 18:16:05;;;;;;;10.15;4.28;;;22.00;57.40;;;;;;5122004;27;20074;-62
2023/07/02 18:18:30;;;;;;;12.15;4.68;;;21.80;57.70;;;;;;5092726;28;20464;-60
2023/07/02 18:20:56;;;;;;;11.98;4.30;;;21.60;58.10;;;;;;5092065;28;20511;-72
2023/07/02 18:23:23;;;;;;;10.70;4.90;;;21.50;58.70;;;;;;5092458;28;20035;-70
2023/07/02 18:25:54;;;;;;;8.32;3.90;;;21.50;59.20;;;;;;5092501;28;20103;-65
2023/07/02 18:28:20;;;;;;;;;;;21.50;59.30;;;;;;5092845;28;20028;-62
2023/07/02 18:30:47;;;;;;;9.05;4.40;;;21.40;59.40;;;;;;5091947;28;19915;-61
2023/07/02 18:33:14;;;;;;;10.57;4.50;;;21.40;59.60;;;;;;5092712;28;20368;-61
2023/07/02 18:35:40;;;;;;;12.23;4.97;;;21.30;59.90;;;;;;5093852;28;20413;-73
2023/07/02 18:38:06;;;;;;;10.52;3.67;;;21.20;60.00;;;;;;5095537;28;20075;-60
2023/07/02 18:40:34;;;;;;;9.27;4.22;;;21.10;60.40;;;;;;5082717;28;20381;-73
2023/07/02 18:43:02;;;;;;;10.40;4.70;;;21.10;60.70;;;;;;5091014;28;20512;-69
2023/07/02 18:45:28;;;;;;;8.88;4.00;;;21.00;61.00;;;;;;5079362;28;20392;-70
2023/07/02 18:47:55;;;;;;;10.35;4.15;;;20.90;61.10;;;;;;5069950;28;20024;-74
2023/07/02 18:50:20;;;;;;;11.68;4.68;;;20.80;61.20;;;;;;5071220;28;20107;-72
2023/07/02 18:52:46;;;;;;;9.30;3.53;;;20.60;61.70;;;;;;5072092;28;20135;-75
2023/07/02 18:55:13;;;;;;;10.00;4.65;;;20.60;62.10;;;;;;5073834;28;20016;-71
2023/07/02 18:57:39;;;;;;;15.70;7.00;;;20.50;62.40;;;;;;5091162;28;20032;-69
2023/07/02 19:00:08;;;;;;;12.52;4.93;;;20.50;62.70;;;;;;5094134;28;20039;-73
2023/07/02 19:02:34;;;;;;;10.48;4.35;;;20.40;63.60;;;;;;5092229;28;20422;-75
2023/07/02 19:05:00;;;;;;;11.15;4.45;;;20.40;63.10;;;;;;5092803;28;20036;-72
2023/07/02 19:07:27;;;;;;;11.27;5.22;;;20.30;63.40;;;;;;5093479;28;20020;-73
2023/07/02 19:09:54;;;;;;;12.13;4.72;;;20.40;63.70;;;;;;5093304;28;20099;-68
2023/07/02 19:12:20;;;;;;;9.02;3.30;;;20.30;63.90;;;;;;5098568;28;20043;-72
2023/07/02 19:14:45;;;;;;;14.38;5.30;;;20.30;64.10;;;;;;5097270;28;20020;-73
2023/07/02 19:17:14;;;;;;;11.75;4.28;;;20.40;64.30;;;;;;5092066;28;20024;-75
2023/07/02 19:19:41;;;;;;;11.30;4.07;;;20.30;64.50;;;;;;5094296;28;20070;-63
